createdAt,value
2017-11-03T00:02:11.332Z,68.00
2017-11-03T00:04:56.459Z,73.68
2017-11-03T00:07:41.584Z,62.97
2017-11-03T00:10:26.699Z,66.95
2017-11-03T00:13:11.867Z,87.53
2017-11-03T00:15:57.082Z,71.80
2017-11-03T00:18:42.196Z,79.78
2017-11-03T00:21:27.516Z,67.25
2017-11-03T00:24:12.954Z,60.00
2017-11-03T00:26:58.385Z,69.47
2017-11-03T00:29:45.243Z,72.45
2017-11-03T00:32:30.983Z,73.40
2017-11-03T00:35:16.034Z,66.65
2017-11-03T00:38:01.285Z,66.75
2017-11-03T00:40:47.148Z,67.85
2017-11-03T00:43:33.997Z,68.35
2017-11-03T00:46:19.351Z,79.57
2017-11-03T00:49:04.608Z,59.80
2017-11-03T00:51:49.647Z,62.92
2017-11-03T00:54:35.014Z,60.00
2017-11-03T00:57:20.206Z,70.25
2017-11-03T01:00:06.428Z,65.28
2017-11-03T01:02:51.581Z,60.35
2017-11-03T01:05:37.022Z,66.53
2017-11-03T01:08:22.059Z,59.95
2017-11-03T01:11:07.570Z,65.37
2017-11-03T01:13:52.903Z,58.70
2017-11-03T01:16:38.973Z,65.78
2017-11-03T01:19:24.203Z,63.17
2017-11-03T01:22:09.502Z,67.75
2017-11-03T01:24:54.856Z,67.47
2017-11-03T01:27:41.010Z,77.32
2017-11-03T01:30:26.139Z,59.58
2017-11-03T01:33:11.989Z,66.57
2017-11-03T01:35:57.232Z,82.03
2017-11-03T01:38:42.619Z,59.30
2017-11-03T01:41:27.703Z,52.45
2017-11-03T01:44:12.887Z,53.85
2017-11-03T01:46:57.968Z,64.82
2017-11-03T01:49:43.013Z,63.97
2017-11-03T01:52:29.047Z,59.00
2017-11-03T01:55:14.191Z,59.72
2017-11-03T01:57:59.340Z,71.07
2017-11-03T02:00:44.674Z,63.72
2017-11-03T02:03:29.800Z,66.20
2017-11-03T02:06:15.001Z,65.35
2017-11-03T02:09:00.154Z,58.78
2017-11-03T02:11:45.058Z,57.50
2017-11-03T02:14:30.269Z,58.08
2017-11-03T02:17:15.402Z,63.17
2017-11-03T02:20:00.489Z,58.00
2017-11-03T02:22:45.536Z,71.45
2017-11-03T02:25:30.524Z,62.20
2017-11-03T02:28:15.831Z,53.67
2017-11-03T02:31:01.106Z,58.25
2017-11-03T02:33:46.162Z,63.42
2017-11-03T02:36:31.541Z,53.38
2017-11-03T02:39:17.066Z,67.72
2017-11-03T02:41:44.702Z,50.10
2017-11-03T02:44:12.332Z,70.72
2017-11-03T02:46:39.981Z,58.87
2017-11-03T02:49:07.636Z,58.72
2017-11-03T02:51:35.241Z,62.03
2017-11-03T02:54:02.848Z,69.53
2017-11-03T02:56:30.453Z,63.38
2017-11-03T02:58:58.058Z,64.47
2017-11-03T03:01:25.670Z,60.95
2017-11-03T03:03:53.280Z,61.85
2017-11-03T03:06:20.897Z,55.22
2017-11-03T03:08:48.510Z,60.70
2017-11-03T03:11:16.126Z,59.55
2017-11-03T03:13:43.707Z,59.03
2017-11-03T03:16:11.366Z,63.22
2017-11-03T03:18:39.703Z,55.83
2017-11-03T03:21:07.338Z,52.47
2017-11-03T03:23:34.956Z,52.25
2017-11-03T03:26:03.315Z,50.47
2017-11-03T03:28:30.976Z,51.53
2017-11-03T03:30:58.563Z,48.95
2017-11-03T03:33:26.950Z,46.80
2017-11-03T03:35:55.334Z,62.13
2017-11-03T03:38:23.719Z,54.15
2017-11-03T03:40:51.327Z,60.83
2017-11-03T03:43:18.938Z,50.88
2017-11-03T03:45:46.563Z,51.50
2017-11-03T03:48:14.206Z,48.00
2017-11-03T03:50:41.829Z,52.55
2017-11-03T03:53:09.400Z,56.35
2017-11-03T03:55:37.007Z,50.28
2017-11-03T03:58:04.628Z,56.20
2017-11-03T04:00:32.242Z,52.50
2017-11-03T04:02:59.879Z,51.90
2017-11-03T04:05:27.452Z,47.03
2017-11-03T04:07:55.058Z,49.72
2017-11-03T04:10:22.674Z,45.03
2017-11-03T04:12:50.299Z,44.90
2017-11-03T04:15:17.966Z,41.20
2017-11-03T04:17:45.578Z,52.13
2017-11-03T04:20:13.195Z,56.70
2017-11-03T04:22:40.831Z,44.17
2017-11-03T04:25:08.467Z,46.63
2017-11-03T04:27:36.875Z,41.45
2017-11-03T04:30:04.454Z,41.70
2017-11-03T04:32:32.045Z,49.85
2017-11-03T04:34:59.661Z,47.92
2017-11-03T04:37:27.295Z,39.90
2017-11-03T04:39:55.658Z,40.20
2017-11-03T04:42:24.045Z,44.97
2017-11-03T04:44:52.427Z,31.55
2017-11-03T04:47:20.799Z,38.22
2017-11-03T04:49:49.176Z,32.35
2017-11-03T04:52:17.517Z,38.72
2017-11-03T04:54:45.088Z,31.50
2017-11-03T04:57:12.711Z,35.28
2017-11-03T04:59:40.323Z,32.35
2017-11-03T05:02:07.935Z,28.65
2017-11-03T05:04:35.548Z,27.98
2017-11-03T05:07:03.158Z,34.30
2017-11-03T05:09:30.772Z,41.47
2017-11-03T05:11:58.386Z,27.30
2017-11-03T05:14:26.054Z,28.50
2017-11-03T05:16:53.662Z,62.38
2017-11-03T05:19:22.034Z,51.95
2017-11-03T05:21:49.650Z,40.85
2017-11-03T05:24:17.220Z,27.45
2017-11-03T05:26:44.826Z,28.50
2017-11-03T05:29:12.445Z,31.45
2017-11-03T05:31:40.024Z,22.90
2017-11-03T05:34:07.630Z,28.58
2017-11-03T05:36:35.250Z,36.72
2017-11-03T05:39:02.878Z,38.42
2017-11-03T05:41:30.502Z,24.45
2017-11-03T05:43:58.874Z,30.08
2017-11-03T05:46:26.513Z,28.75
2017-11-03T05:48:54.127Z,36.38
2017-11-03T05:51:21.751Z,27.25
2017-11-03T05:53:49.370Z,30.80
2017-11-03T05:56:16.982Z,31.85
2017-11-03T05:58:45.318Z,27.02
2017-11-03T06:01:12.921Z,32.47
2017-11-03T06:03:40.534Z,32.40
2017-11-03T06:06:08.143Z,28.80
2017-11-03T06:08:35.770Z,30.10
2017-11-03T06:11:03.383Z,33.83
2017-11-03T06:13:31.004Z,30.52
2017-11-03T06:15:58.580Z,26.77
2017-11-03T06:18:26.194Z,33.20
2017-11-03T06:20:53.763Z,36.60
2017-11-03T06:23:21.329Z,35.85
2017-11-03T06:25:48.935Z,33.03
2017-11-03T06:28:17.310Z,37.80
2017-11-03T06:30:45.751Z,27.25
2017-11-03T06:33:13.380Z,38.28
2017-11-03T06:35:40.989Z,35.38
2017-11-03T06:38:08.595Z,27.20
2017-11-03T06:40:36.215Z,34.67
2017-11-03T06:43:03.847Z,41.45
2017-11-03T06:45:31.455Z,38.25
2017-11-03T06:47:59.080Z,46.17
2017-11-03T06:50:26.694Z,41.90
2017-11-03T06:52:54.313Z,43.85
2017-11-03T06:55:21.930Z,40.28
2017-11-03T06:57:49.539Z,42.83
2017-11-03T07:00:17.153Z,44.13
2017-11-03T07:02:44.732Z,48.35
2017-11-03T07:05:12.308Z,36.47
2017-11-03T07:07:39.930Z,38.40
2017-11-03T07:10:07.570Z,42.58
2017-11-03T07:12:35.180Z,45.67
2017-11-03T07:15:02.795Z,50.75
2017-11-03T07:17:30.420Z,35.42
2017-11-03T07:19:58.032Z,43.80
2017-11-03T07:22:25.648Z,41.70
2017-11-03T07:24:53.267Z,36.00
2017-11-03T07:27:20.878Z,47.88
2017-11-03T07:29:48.486Z,40.15
2017-11-03T07:32:16.104Z,42.70
2017-11-03T07:34:43.714Z,37.92
2017-11-03T07:37:11.362Z,38.95
2017-11-03T07:39:38.982Z,38.53
2017-11-03T07:42:06.639Z,33.40
2017-11-03T07:44:34.210Z,37.60
2017-11-03T07:47:01.832Z,42.83
2017-11-03T07:49:29.535Z,39.20
2017-11-03T07:51:57.146Z,32.75
2017-11-03T07:54:24.751Z,37.28
2017-11-03T07:56:52.355Z,37.78
2017-11-03T07:59:19.967Z,31.58
2017-11-03T08:01:47.579Z,40.95
2017-11-03T08:04:15.234Z,41.63
2017-11-03T08:06:42.838Z,32.20
2017-11-03T08:09:10.450Z,27.48
2017-11-03T08:11:38.053Z,26.60
2017-11-03T08:14:05.666Z,27.15
2017-11-03T08:16:34.039Z,25.98
2017-11-03T08:19:02.464Z,26.55
2017-11-03T08:21:30.032Z,29.77
2017-11-03T08:23:57.634Z,31.30
2017-11-03T08:26:26.006Z,28.85
2017-11-03T08:28:53.621Z,23.48
2017-11-03T08:31:21.233Z,27.55
2017-11-03T08:33:49.610Z,26.42
2017-11-03T08:36:17.988Z,25.15
2017-11-03T08:38:46.364Z,30.70
2017-11-03T08:41:13.976Z,34.53
2017-11-03T08:43:41.543Z,27.75
2017-11-03T08:46:09.151Z,39.85
2017-11-03T08:48:36.763Z,25.40
2017-11-03T08:51:04.336Z,25.23
2017-11-03T08:53:31.962Z,33.75
2017-11-03T08:55:59.578Z,26.40
2017-11-03T08:58:27.187Z,25.58
2017-11-03T09:00:54.771Z,31.67
2017-11-03T09:03:22.423Z,23.30
2017-11-03T09:05:50.239Z,28.75
2017-11-03T09:08:17.847Z,24.65
2017-11-03T09:10:45.464Z,31.48
2017-11-03T09:13:13.848Z,31.92
2017-11-03T09:15:42.179Z,25.77
2017-11-03T09:18:09.794Z,22.67
2017-11-03T09:20:37.420Z,25.40
2017-11-03T09:23:05.049Z,18.85
2017-11-03T09:25:32.678Z,35.25
2017-11-03T09:28:01.076Z,21.42
2017-11-03T09:30:28.649Z,21.10
2017-11-03T09:32:56.270Z,18.67
2017-11-03T09:35:24.647Z,19.40
2017-11-03T09:37:53.043Z,23.42
2017-11-03T09:40:21.424Z,21.58
2017-11-03T09:42:49.047Z,37.67
2017-11-03T09:45:16.655Z,25.70
2017-11-03T09:47:44.257Z,17.42
2017-11-03T09:50:11.890Z,20.98
2017-11-03T09:52:39.490Z,22.42
2017-11-03T09:55:07.142Z,24.80
2017-11-03T09:57:34.756Z,21.58
2017-11-03T10:00:02.362Z,22.98
2017-11-03T10:02:29.966Z,19.48
2017-11-03T10:04:57.578Z,34.65
2017-11-03T10:07:25.178Z,26.65
2017-11-03T10:09:52.780Z,14.90
2017-11-03T10:12:20.342Z,16.45
2017-11-03T10:14:47.963Z,19.42
2017-11-03T10:17:16.338Z,17.77
2017-11-03T10:19:44.676Z,22.98
2017-11-03T10:22:12.285Z,18.33
2017-11-03T10:24:39.903Z,19.12
2017-11-03T10:27:07.498Z,23.90
2017-11-03T10:29:35.106Z,19.67
2017-11-03T10:32:02.714Z,19.33
2017-11-03T10:34:30.323Z,18.05
2017-11-03T10:36:57.927Z,20.17
2017-11-03T10:39:25.537Z,24.45
2017-11-03T10:41:53.100Z,23.33
2017-11-03T10:44:20.717Z,18.70
2017-11-03T10:46:48.283Z,18.60
2017-11-03T10:49:16.650Z,16.85
2017-11-03T10:51:44.280Z,16.73
2017-11-03T10:54:11.849Z,12.60
2017-11-03T10:56:39.454Z,16.83
2017-11-03T10:59:07.017Z,17.12
2017-11-03T11:01:34.601Z,12.13
2017-11-03T11:04:02.235Z,27.17
2017-11-03T11:06:29.824Z,14.30
2017-11-03T11:08:57.446Z,17.75
2017-11-03T11:11:25.012Z,19.25
2017-11-03T11:13:53.383Z,13.80
2017-11-03T11:16:20.998Z,18.92
2017-11-03T11:18:48.594Z,16.85
2017-11-03T11:21:16.200Z,22.20
2017-11-03T11:23:43.846Z,21.80
2017-11-03T11:26:12.223Z,16.27
2017-11-03T11:28:40.595Z,16.65
2017-11-03T11:31:08.970Z,17.12
2017-11-03T11:33:37.354Z,18.77
2017-11-03T11:36:05.736Z,19.17
2017-11-03T11:38:34.080Z,19.40
2017-11-03T11:41:01.929Z,23.10
2017-11-03T11:43:29.520Z,24.08
2017-11-03T11:45:57.149Z,26.27
2017-11-03T11:48:24.779Z,21.25
2017-11-03T11:50:52.371Z,25.02
2017-11-03T11:53:20.003Z,12.50
2017-11-03T11:55:47.635Z,19.90
2017-11-03T11:58:15.251Z,16.42
2017-11-03T12:00:42.882Z,15.48
2017-11-03T12:03:10.479Z,20.70
2017-11-03T12:05:38.062Z,21.73
2017-11-03T12:08:05.650Z,26.42
2017-11-03T12:10:33.287Z,25.73
2017-11-03T12:13:00.927Z,22.65
2017-11-03T12:15:28.562Z,18.98
2017-11-03T12:17:56.208Z,19.58
2017-11-03T12:20:23.830Z,19.50
2017-11-03T12:22:51.470Z,16.62
2017-11-03T12:25:19.106Z,16.42
2017-11-03T12:27:46.736Z,15.90
2017-11-03T12:30:14.366Z,19.12
2017-11-03T12:32:41.994Z,19.27
2017-11-03T12:35:09.622Z,14.70
2017-11-03T12:37:38.007Z,16.73
2017-11-03T12:40:06.398Z,14.87
2017-11-03T12:42:34.043Z,19.87
2017-11-03T12:45:02.441Z,17.83
2017-11-03T12:47:30.063Z,26.23
2017-11-03T12:49:57.753Z,15.93
2017-11-03T12:52:26.142Z,22.92
2017-11-03T12:54:54.537Z,17.80
2017-11-03T12:57:22.166Z,18.65
2017-11-03T12:59:49.813Z,18.15
2017-11-03T13:02:17.451Z,19.25
2017-11-03T13:04:45.048Z,20.90
2017-11-03T13:07:12.768Z,20.35
2017-11-03T13:09:40.362Z,16.75
2017-11-03T13:12:08.040Z,15.95
2017-11-03T13:14:35.662Z,20.27
2017-11-03T13:17:03.286Z,22.15
2017-11-03T13:19:30.914Z,14.25
2017-11-03T13:21:58.499Z,19.40
2017-11-03T13:24:26.115Z,16.95
2017-11-03T13:26:54.790Z,17.50
2017-11-03T13:29:22.427Z,18.77
2017-11-03T13:31:50.054Z,18.42
2017-11-03T13:34:18.431Z,17.37
2017-11-03T13:36:46.814Z,17.30
2017-11-03T13:39:15.201Z,14.20
2017-11-03T13:41:43.586Z,15.18
2017-11-03T13:44:11.163Z,24.73
2017-11-03T13:46:38.756Z,13.57
2017-11-03T13:49:06.378Z,17.83
2017-11-03T13:51:33.991Z,21.95
2017-11-03T13:54:01.615Z,14.30
2017-11-03T13:56:29.238Z,20.80
2017-11-03T13:58:57.642Z,13.70
2017-11-03T14:01:25.253Z,12.07
2017-11-03T14:03:52.874Z,15.43
2017-11-03T14:06:20.447Z,13.32
2017-11-03T14:08:48.066Z,17.58
2017-11-03T14:11:16.446Z,16.50
2017-11-03T14:13:44.820Z,20.17
2017-11-03T14:16:13.156Z,18.00
2017-11-03T14:18:40.762Z,19.20
2017-11-03T14:21:08.381Z,19.70
2017-11-03T14:23:35.949Z,13.62
2017-11-03T14:26:03.630Z,21.70
2017-11-03T14:28:31.632Z,16.45
2017-11-03T14:31:00.057Z,23.55
2017-11-03T14:33:27.930Z,16.42
2017-11-03T14:35:55.649Z,18.90
2017-11-03T14:38:23.258Z,14.25
2017-11-03T14:40:50.892Z,19.42
2017-11-03T14:43:18.599Z,12.25
2017-11-03T14:45:46.202Z,15.02
2017-11-03T14:48:13.807Z,16.52
2017-11-03T14:50:41.414Z,12.73
2017-11-03T14:53:09.020Z,13.07
2017-11-03T14:55:36.622Z,17.75
2017-11-03T14:58:04.229Z,13.57
2017-11-03T15:00:31.832Z,11.50
2017-11-03T15:03:00.198Z,34.75
2017-11-03T15:05:27.859Z,19.73
2017-11-03T15:07:55.462Z,12.75
2017-11-03T15:10:25.529Z,7.30
2017-11-03T15:12:53.163Z,10.27
2017-11-03T15:15:20.723Z,6.80
2017-11-03T15:17:48.478Z,6.70
2017-11-03T15:20:16.086Z,10.48
2017-11-03T15:22:43.690Z,10.65
2017-11-03T15:25:11.350Z,11.75
2017-11-03T15:27:38.962Z,10.98
2017-11-03T15:30:06.572Z,8.02
2017-11-03T15:32:34.170Z,12.32
2017-11-03T15:35:01.814Z,9.73
2017-11-03T15:37:29.422Z,12.73
2017-11-03T15:39:57.025Z,12.32
2017-11-03T15:42:24.635Z,13.38
2017-11-03T15:44:52.240Z,10.15
2017-11-03T15:47:19.838Z,14.87
2017-11-03T15:49:47.462Z,14.93
2017-11-03T15:52:15.037Z,14.18
2017-11-03T15:54:42.662Z,15.07
2017-11-03T15:57:10.318Z,10.07
2017-11-03T15:59:38.731Z,20.40
2017-11-03T16:02:06.291Z,13.20
2017-11-03T16:04:33.904Z,16.55
2017-11-03T16:07:01.506Z,18.48
2017-11-03T16:09:29.719Z,21.23
2017-11-03T16:11:57.406Z,21.25
2017-11-03T16:14:25.010Z,15.68
2017-11-03T16:16:52.619Z,22.17
2017-11-03T16:19:20.245Z,34.42
2017-11-03T16:21:47.854Z,40.35
2017-11-03T16:24:15.471Z,30.90
2017-11-03T16:26:43.078Z,40.25
2017-11-03T16:29:10.692Z,30.20
2017-11-03T16:31:38.272Z,22.10
2017-11-03T16:34:05.882Z,20.08
2017-11-03T16:36:33.489Z,18.87
2017-11-03T16:39:01.142Z,22.85
2017-11-03T16:41:28.754Z,96.57
2017-11-03T16:43:56.374Z,137.80
2017-11-03T16:46:23.996Z,115.85
2017-11-03T16:48:51.581Z,82.43
2017-11-03T16:51:19.218Z,87.07
2017-11-03T16:53:46.831Z,112.55
2017-11-03T16:56:14.531Z,144.95
2017-11-03T16:58:42.915Z,145.52
2017-11-03T17:01:10.707Z,161.35
2017-11-03T17:03:38.289Z,195.62
2017-11-03T17:06:05.929Z,195.90
2017-11-03T17:08:33.571Z,163.25
2017-11-03T17:11:01.168Z,179.07
2017-11-03T17:13:28.804Z,118.53
2017-11-03T17:15:56.383Z,96.85
2017-11-03T17:18:23.957Z,96.95
2017-11-03T17:20:51.682Z,120.65
2017-11-03T17:23:19.301Z,69.37
2017-11-03T17:25:46.910Z,70.45
2017-11-03T17:28:14.515Z,80.53
2017-11-03T17:30:42.125Z,81.75
2017-11-03T17:33:09.735Z,94.10
2017-11-03T17:35:37.523Z,329.75
2017-11-03T17:38:05.867Z,180.10
2017-11-03T17:40:33.853Z,132.55
2017-11-03T17:43:01.461Z,72.28
2017-11-03T17:45:29.076Z,144.98
2017-11-03T17:47:56.691Z,259.58
2017-11-03T17:50:24.302Z,404.00
2017-11-03T17:52:51.912Z,257.02
2017-11-03T17:55:20.551Z,214.02
2017-11-03T17:57:48.314Z,169.73
2017-11-03T18:00:16.754Z,88.93
2017-11-03T18:02:44.473Z,53.22
2017-11-03T18:05:12.863Z,46.72
2017-11-03T18:07:40.437Z,44.50
2017-11-03T18:10:08.022Z,49.08
2017-11-03T18:12:35.647Z,39.17
2017-11-03T18:15:03.279Z,38.90
2017-11-03T18:17:31.851Z,36.40
2017-11-03T18:19:59.418Z,51.50
2017-11-03T18:22:27.212Z,48.72
2017-11-03T18:24:54.970Z,48.38
2017-11-03T18:27:23.343Z,46.80
2017-11-03T18:29:51.719Z,39.35
2017-11-03T18:32:20.106Z,38.85
2017-11-03T18:34:48.443Z,40.33
2017-11-03T18:37:16.230Z,39.88
2017-11-03T18:39:43.858Z,35.67
2017-11-03T18:42:11.462Z,39.17
2017-11-03T18:44:39.112Z,44.33
2017-11-03T18:47:06.769Z,37.45
2017-11-03T18:49:34.386Z,35.55
2017-11-03T18:52:02.163Z,39.08
2017-11-03T18:54:30.506Z,50.47
2017-11-03T18:56:58.147Z,61.83
2017-11-03T18:59:25.754Z,54.78
2017-11-03T19:01:53.359Z,63.60
2017-11-03T19:04:20.928Z,61.17
2017-11-03T19:06:48.499Z,55.58
2017-11-03T19:09:16.833Z,56.95
2017-11-03T19:11:44.658Z,48.47
2017-11-03T19:14:12.268Z,54.17
2017-11-03T19:16:39.875Z,40.60
2017-11-03T19:19:08.209Z,41.83
2017-11-03T19:21:35.866Z,53.10
2017-11-03T19:24:04.650Z,39.83
2017-11-03T19:26:32.258Z,52.08
2017-11-03T19:29:00.637Z,55.65
2017-11-03T19:31:29.169Z,53.20
2017-11-03T19:33:56.775Z,50.92
2017-11-03T19:36:24.311Z,51.50
2017-11-03T19:38:51.922Z,40.15
2017-11-03T19:41:19.654Z,49.78
2017-11-03T19:43:48.315Z,55.63
2017-11-03T19:46:15.942Z,51.80
2017-11-03T19:48:43.571Z,50.00
2017-11-03T19:51:11.905Z,50.03
2017-11-03T19:53:40.657Z,51.78
2017-11-03T19:56:08.270Z,51.22
2017-11-03T19:58:35.879Z,50.95
2017-11-03T20:01:03.540Z,42.92
2017-11-03T20:03:31.435Z,50.42
2017-11-03T20:05:59.139Z,45.58
2017-11-03T20:08:26.793Z,47.85
2017-11-03T20:10:54.426Z,54.13
2017-11-03T20:13:22.038Z,50.88
2017-11-03T20:15:49.649Z,43.22
2017-11-03T20:18:17.261Z,44.95
2017-11-03T20:20:45.638Z,57.28
2017-11-03T20:23:13.255Z,50.28
2017-11-03T20:25:40.947Z,50.90
2017-11-03T20:28:08.558Z,45.12
2017-11-03T20:30:36.184Z,43.70
2017-11-03T20:33:04.568Z,50.22
2017-11-03T20:35:32.184Z,47.58
2017-11-03T20:37:59.805Z,51.17
2017-11-03T20:40:27.420Z,40.90
2017-11-03T20:42:55.051Z,38.05
2017-11-03T20:45:22.659Z,37.90
2017-11-03T20:47:50.203Z,50.10
2017-11-03T20:50:17.816Z,42.92
2017-11-03T20:52:45.447Z,48.50
2017-11-03T20:55:13.780Z,56.17
2017-11-03T20:57:41.349Z,49.42
2017-11-03T21:00:08.954Z,52.22
2017-11-03T21:02:36.528Z,59.08
2017-11-03T21:05:04.097Z,57.25
2017-11-03T21:07:31.721Z,52.53
2017-11-03T21:09:59.335Z,51.83
2017-11-03T21:12:26.910Z,59.70
2017-11-03T21:14:55.615Z,58.28
2017-11-03T21:17:23.252Z,59.17
2017-11-03T21:19:50.865Z,55.60
2017-11-03T21:22:18.522Z,59.28
2017-11-03T21:24:46.142Z,57.97
2017-11-03T21:27:14.027Z,50.72
2017-11-03T21:29:41.661Z,51.20
2017-11-03T21:32:09.271Z,63.67
2017-11-03T21:34:36.905Z,58.20
2017-11-03T21:37:04.603Z,58.70
2017-11-03T21:39:33.522Z,57.58
2017-11-03T21:42:01.172Z,56.80
2017-11-03T21:44:28.789Z,60.30
2017-11-03T21:46:56.406Z,60.92
2017-11-03T21:49:23.975Z,61.05
2017-11-03T21:51:51.796Z,66.05
2017-11-03T21:54:20.141Z,61.78
2017-11-03T21:56:47.708Z,67.03
2017-11-03T21:59:15.394Z,61.85
2017-11-03T22:01:43.729Z,65.82
2017-11-03T22:04:11.379Z,65.30
2017-11-03T22:06:38.992Z,69.12
2017-11-03T22:09:07.379Z,60.90
2017-11-03T22:11:35.767Z,55.25
2017-11-03T22:14:04.230Z,62.00
2017-11-03T22:16:31.859Z,60.70
2017-11-03T22:18:59.719Z,64.37
2017-11-03T22:21:27.330Z,54.95
2017-11-03T22:23:54.898Z,58.72
2017-11-03T22:26:22.744Z,59.45
2017-11-03T22:28:50.351Z,56.35
2017-11-03T22:31:17.962Z,54.53
2017-11-03T22:33:45.691Z,56.92
2017-11-03T22:36:13.261Z,59.55
2017-11-03T22:38:40.878Z,59.53
2017-11-03T22:41:08.483Z,46.30
2017-11-03T22:43:36.091Z,47.20
2017-11-03T22:46:04.462Z,49.63
2017-11-03T22:48:32.839Z,53.78
2017-11-03T22:51:01.177Z,48.45
2017-11-03T22:53:28.786Z,50.92
2017-11-03T22:55:56.393Z,45.38
2017-11-03T22:58:24.000Z,53.80
2017-11-03T23:00:51.614Z,52.53
2017-11-03T23:03:19.269Z,50.12
2017-11-03T23:05:46.880Z,51.90
2017-11-03T23:08:15.591Z,44.88
2017-11-03T23:10:43.160Z,49.60
2017-11-03T23:13:10.780Z,48.15
2017-11-03T23:15:38.386Z,43.67
2017-11-03T23:18:05.994Z,40.28
2017-11-03T23:20:33.606Z,47.10
2017-11-03T23:23:01.267Z,56.53
2017-11-03T23:25:28.871Z,46.53
2017-11-03T23:27:56.447Z,43.42
2017-11-03T23:30:24.057Z,48.97
2017-11-03T23:32:51.675Z,45.35
2017-11-03T23:35:19.286Z,48.00
2017-11-03T23:37:46.894Z,52.03
2017-11-03T23:40:14.508Z,51.55
2017-11-03T23:42:42.078Z,56.10
2017-11-03T23:45:09.743Z,47.35
2017-11-03T23:47:37.392Z,48.40
2017-11-03T23:50:04.964Z,46.15
2017-11-03T23:52:32.528Z,50.30
2017-11-03T23:55:00.140Z,49.50
2017-11-03T23:57:27.747Z,46.13
2017-11-03T23:59:55.355Z,60.25
